sensor_id;sensor_type;location;lat;lon;timestamp;P1;durP1;ratioP1;P2;durP2;ratioP2
20365;SDS011;10341;49.894;8.822;2023-07-31T00:00:51;3.20;;;1.30;;
20365;SDS011;10341;49.894;8.822;2023-07-31T00:06:10;3.10;;;1.50;;
20365;SDS011;10341;49.894;8.822;2023-07-31T00:11:30;4.97;;;1.37;;
20365;SDS011;10341;49.894;8.822;2023-07-31T00:16:49;3.47;;;1.17;;
20365;SDS011;10341;49.894;8.822;2023-07-31T00:22:09;3.90;;;1.30;;
20365;SDS011;10341;49.894;8.822;2023-07-31T00:27:28;3.00;;;1.30;;
20365;SDS011;10341;49.894;8.822;2023-07-31T00:32:47;4.22;;;1.30;;
20365;SDS011;10341;49.894;8.822;2023-07-31T00:38:07;3.95;;;1.45;;
20365;SDS011;10341;49.894;8.822;2023-07-31T00:43:26;2.95;;;1.55;;
20365;SDS011;10341;49.894;8.822;2023-07-31T00:48:45;3.60;;;1.23;;
20365;SDS011;10341;49.894;8.822;2023-07-31T00:54:05;3.53;;;1.50;;
20365;SDS011;10341;49.894;8.822;2023-07-31T00:59:25;5.82;;;1.40;;
20365;SDS011;10341;49.894;8.822;2023-07-31T01:04:44;3.20;;;1.30;;
20365;SDS011;10341;49.894;8.822;2023-07-31T01:10:12;1.73;;;1.20;;
20365;SDS011;10341;49.894;8.822;2023-07-31T01:15:38;2.55;;;1.20;;
20365;SDS011;10341;49.894;8.822;2023-07-31T01:21:02;4.72;;;1.40;;
20365;SDS011;10341;49.894;8.822;2023-07-31T01:26:33;2.65;;;1.40;;
20365;SDS011;10341;49.894;8.822;2023-07-31T01:31:55;2.13;;;1.30;;
20365;SDS011;10341;49.894;8.822;2023-07-31T01:37:16;2.55;;;1.38;;
20365;SDS011;10341;49.894;8.822;2023-07-31T01:42:36;3.60;;;1.45;;
20365;SDS011;10341;49.894;8.822;2023-07-31T01:47:56;3.72;;;1.42;;
20365;SDS011;10341;49.894;8.822;2023-07-31T01:53:16;2.53;;;1.23;;
20365;SDS011;10341;49.894;8.822;2023-07-31T01:58:35;3.00;;;1.50;;
20365;SDS011;10341;49.894;8.822;2023-07-31T02:03:54;2.40;;;1.40;;
20365;SDS011;10341;49.894;8.822;2023-07-31T02:09:15;2.72;;;1.60;;
20365;SDS011;10341;49.894;8.822;2023-07-31T02:14:34;3.27;;;1.37;;
20365;SDS011;10341;49.894;8.822;2023-07-31T02:19:54;4.28;;;1.55;;
20365;SDS011;10341;49.894;8.822;2023-07-31T02:25:13;6.82;;;1.80;;
20365;SDS011;10341;49.894;8.822;2023-07-31T02:30:33;3.70;;;1.50;;
20365;SDS011;10341;49.894;8.822;2023-07-31T02:35:52;5.25;;;1.77;;
20365;SDS011;10341;49.894;8.822;2023-07-31T02:41:11;2.30;;;1.20;;
20365;SDS011;10341;49.894;8.822;2023-07-31T02:46:31;3.63;;;1.52;;
20365;SDS011;10341;49.894;8.822;2023-07-31T02:51:51;5.20;;;1.63;;
20365;SDS011;10341;49.894;8.822;2023-07-31T02:57:10;2.90;;;1.60;;
20365;SDS011;10341;49.894;8.822;2023-07-31T03:02:29;3.33;;;1.38;;
20365;SDS011;10341;49.894;8.822;2023-07-31T03:07:48;4.43;;;1.40;;
20365;SDS011;10341;49.894;8.822;2023-07-31T03:13:07;5.93;;;1.60;;
20365;SDS011;10341;49.894;8.822;2023-07-31T03:18:27;3.83;;;1.42;;
20365;SDS011;10341;49.894;8.822;2023-07-31T03:23:46;3.88;;;1.70;;
20365;SDS011;10341;49.894;8.822;2023-07-31T03:29:05;5.72;;;1.65;;
20365;SDS011;10341;49.894;8.822;2023-07-31T03:34:24;5.25;;;1.67;;
20365;SDS011;10341;49.894;8.822;2023-07-31T03:39:43;3.78;;;1.70;;
20365;SDS011;10341;49.894;8.822;2023-07-31T03:45:03;5.10;;;1.63;;
20365;SDS011;10341;49.894;8.822;2023-07-31T03:50:22;4.63;;;1.70;;
20365;SDS011;10341;49.894;8.822;2023-07-31T03:55:44;3.15;;;1.83;;
20365;SDS011;10341;49.894;8.822;2023-07-31T04:01:03;3.97;;;1.57;;
20365;SDS011;10341;49.894;8.822;2023-07-31T04:06:22;2.13;;;1.50;;
20365;SDS011;10341;49.894;8.822;2023-07-31T04:11:42;3.08;;;1.55;;
20365;SDS011;10341;49.894;8.822;2023-07-31T04:17:01;3.25;;;1.95;;
20365;SDS011;10341;49.894;8.822;2023-07-31T04:22:20;3.13;;;1.70;;
20365;SDS011;10341;49.894;8.822;2023-07-31T04:27:40;5.05;;;1.55;;
20365;SDS011;10341;49.894;8.822;2023-07-31T04:32:59;3.15;;;1.70;;
20365;SDS011;10341;49.894;8.822;2023-07-31T04:38:21;3.20;;;1.98;;
20365;SDS011;10341;49.894;8.822;2023-07-31T04:43:41;4.20;;;2.00;;
20365;SDS011;10341;49.894;8.822;2023-07-31T04:49:00;4.17;;;1.63;;
20365;SDS011;10341;49.894;8.822;2023-07-31T04:54:19;3.85;;;1.52;;
20365;SDS011;10341;49.894;8.822;2023-07-31T04:59:39;7.28;;;2.28;;
20365;SDS011;10341;49.894;8.822;2023-07-31T05:04:58;3.78;;;1.88;;
20365;SDS011;10341;49.894;8.822;2023-07-31T05:10:17;5.43;;;1.60;;
20365;SDS011;10341;49.894;8.822;2023-07-31T05:15:37;3.92;;;1.70;;
20365;SDS011;10341;49.894;8.822;2023-07-31T05:20:56;6.23;;;2.23;;
20365;SDS011;10341;49.894;8.822;2023-07-31T05:26:15;4.07;;;1.98;;
20365;SDS011;10341;49.894;8.822;2023-07-31T05:31:34;4.78;;;1.95;;
20365;SDS011;10341;49.894;8.822;2023-07-31T05:36:54;4.43;;;1.85;;
20365;SDS011;10341;49.894;8.822;2023-07-31T05:42:13;4.63;;;1.83;;
20365;SDS011;10341;49.894;8.822;2023-07-31T05:47:33;3.72;;;1.85;;
20365;SDS011;10341;49.894;8.822;2023-07-31T05:52:53;7.03;;;2.13;;
20365;SDS011;10341;49.894;8.822;2023-07-31T05:58:12;3.90;;;1.85;;
20365;SDS011;10341;49.894;8.822;2023-07-31T06:03:31;4.22;;;2.00;;
20365;SDS011;10341;49.894;8.822;2023-07-31T06:08:50;3.17;;;1.90;;
20365;SDS011;10341;49.894;8.822;2023-07-31T06:14:10;4.18;;;2.08;;
20365;SDS011;10341;49.894;8.822;2023-07-31T06:19:29;3.38;;;1.58;;
20365;SDS011;10341;49.894;8.822;2023-07-31T06:24:48;4.03;;;1.40;;
20365;SDS011;10341;49.894;8.822;2023-07-31T06:30:07;4.63;;;1.77;;
20365;SDS011;10341;49.894;8.822;2023-07-31T06:35:27;5.55;;;1.70;;
20365;SDS011;10341;49.894;8.822;2023-07-31T06:40:46;3.70;;;1.83;;
20365;SDS011;10341;49.894;8.822;2023-07-31T06:46:05;4.93;;;1.70;;
20365;SDS011;10341;49.894;8.822;2023-07-31T06:51:25;6.28;;;1.98;;
20365;SDS011;10341;49.894;8.822;2023-07-31T06:56:45;5.83;;;1.50;;
20365;SDS011;10341;49.894;8.822;2023-07-31T07:02:04;5.57;;;1.70;;
20365;SDS011;10341;49.894;8.822;2023-07-31T07:07:23;4.07;;;1.90;;
20365;SDS011;10341;49.894;8.822;2023-07-31T07:12:43;5.25;;;1.55;;
20365;SDS011;10341;49.894;8.822;2023-07-31T07:18:02;3.80;;;1.60;;
20365;SDS011;10341;49.894;8.822;2023-07-31T07:23:22;3.45;;;1.75;;
20365;SDS011;10341;49.894;8.822;2023-07-31T07:28:41;5.00;;;1.90;;
20365;SDS011;10341;49.894;8.822;2023-07-31T07:34:00;3.60;;;1.60;;
20365;SDS011;10341;49.894;8.822;2023-07-31T07:39:21;2.97;;;1.67;;
20365;SDS011;10341;49.894;8.822;2023-07-31T07:44:40;3.47;;;1.85;;
20365;SDS011;10341;49.894;8.822;2023-07-31T07:50:02;3.87;;;1.63;;
20365;SDS011;10341;49.894;8.822;2023-07-31T07:55:22;3.33;;;1.92;;
20365;SDS011;10341;49.894;8.822;2023-07-31T08:00:41;4.47;;;1.70;;
20365;SDS011;10341;49.894;8.822;2023-07-31T08:06:00;3.05;;;1.67;;
20365;SDS011;10341;49.894;8.822;2023-07-31T08:11:20;2.85;;;1.55;;
20365;SDS011;10341;49.894;8.822;2023-07-31T08:16:40;3.38;;;1.80;;
20365;SDS011;10341;49.894;8.822;2023-07-31T08:21:59;3.17;;;1.40;;
20365;SDS011;10341;49.894;8.822;2023-07-31T08:27:18;3.40;;;1.50;;
20365;SDS011;10341;49.894;8.822;2023-07-31T08:32:37;5.88;;;1.85;;
20365;SDS011;10341;49.894;8.822;2023-07-31T08:37:56;2.80;;;1.50;;
20365;SDS011;10341;49.894;8.822;2023-07-31T08:43:16;5.03;;;1.73;;
20365;SDS011;10341;49.894;8.822;2023-07-31T08:48:35;4.50;;;1.67;;
20365;SDS011;10341;49.894;8.822;2023-07-31T08:53:56;3.28;;;1.52;;
20365;SDS011;10341;49.894;8.822;2023-07-31T08:59:16;3.67;;;1.65;;
20365;SDS011;10341;49.894;8.822;2023-07-31T09:04:37;3.28;;;1.60;;
20365;SDS011;10341;49.894;8.822;2023-07-31T09:09:57;3.67;;;1.50;;
20365;SDS011;10341;49.894;8.822;2023-07-31T09:15:16;2.90;;;1.53;;
20365;SDS011;10341;49.894;8.822;2023-07-31T09:20:36;5.45;;;1.90;;
20365;SDS011;10341;49.894;8.822;2023-07-31T09:25:56;5.78;;;1.98;;
20365;SDS011;10341;49.894;8.822;2023-07-31T09:31:16;4.68;;;1.60;;
20365;SDS011;10341;49.894;8.822;2023-07-31T09:36:50;3.58;;;1.95;;
20365;SDS011;10341;49.894;8.822;2023-07-31T09:42:12;2.53;;;1.73;;
20365;SDS011;10341;49.894;8.822;2023-07-31T09:47:31;4.28;;;1.77;;
20365;SDS011;10341;49.894;8.822;2023-07-31T09:52:51;2.58;;;1.63;;
20365;SDS011;10341;49.894;8.822;2023-07-31T09:58:12;3.75;;;1.70;;
20365;SDS011;10341;49.894;8.822;2023-07-31T10:03:31;5.35;;;1.90;;
20365;SDS011;10341;49.894;8.822;2023-07-31T10:14:11;3.97;;;1.60;;
20365;SDS011;10341;49.894;8.822;2023-07-31T10:19:32;3.35;;;1.63;;
20365;SDS011;10341;49.894;8.822;2023-07-31T10:24:51;4.20;;;1.80;;
20365;SDS011;10341;49.894;8.822;2023-07-31T10:30:16;5.13;;;1.90;;
20365;SDS011;10341;49.894;8.822;2023-07-31T10:35:37;3.47;;;1.80;;
20365;SDS011;10341;49.894;8.822;2023-07-31T10:41:07;3.08;;;1.90;;
20365;SDS011;10341;49.894;8.822;2023-07-31T10:46:27;2.75;;;1.80;;
20365;SDS011;10341;49.894;8.822;2023-07-31T10:51:48;4.00;;;1.90;;
20365;SDS011;10341;49.894;8.822;2023-07-31T11:02:40;5.35;;;2.22;;
20365;SDS011;10341;49.894;8.822;2023-07-31T11:08:00;8.23;;;2.08;;
20365;SDS011;10341;49.894;8.822;2023-07-31T11:18:48;4.43;;;2.00;;
20365;SDS011;10341;49.894;8.822;2023-07-31T11:24:12;3.55;;;1.90;;
20365;SDS011;10341;49.894;8.822;2023-07-31T11:29:31;3.40;;;2.10;;
20365;SDS011;10341;49.894;8.822;2023-07-31T11:34:52;7.93;;;2.00;;
20365;SDS011;10341;49.894;8.822;2023-07-31T11:40:14;3.40;;;2.15;;
20365;SDS011;10341;49.894;8.822;2023-07-31T11:45:35;5.85;;;2.17;;
20365;SDS011;10341;49.894;8.822;2023-07-31T11:50:58;4.28;;;2.22;;
20365;SDS011;10341;49.894;8.822;2023-07-31T11:56:18;4.32;;;2.33;;
20365;SDS011;10341;49.894;8.822;2023-07-31T12:01:39;5.38;;;2.15;;
20365;SDS011;10341;49.894;8.822;2023-07-31T12:12:25;3.20;;;2.00;;
20365;SDS011;10341;49.894;8.822;2023-07-31T12:17:47;3.83;;;1.98;;
20365;SDS011;10341;49.894;8.822;2023-07-31T12:23:06;5.63;;;2.00;;
20365;SDS011;10341;49.894;8.822;2023-07-31T12:28:25;4.68;;;2.00;;
20365;SDS011;10341;49.894;8.822;2023-07-31T12:33:46;4.10;;;2.08;;
20365;SDS011;10341;49.894;8.822;2023-07-31T12:39:08;2.83;;;1.95;;
20365;SDS011;10341;49.894;8.822;2023-07-31T12:49:47;3.13;;;2.03;;
20365;SDS011;10341;49.894;8.822;2023-07-31T12:55:06;3.83;;;2.00;;
20365;SDS011;10341;49.894;8.822;2023-07-31T13:00:26;3.35;;;1.80;;
20365;SDS011;10341;49.894;8.822;2023-07-31T13:05:45;7.83;;;1.70;;
20365;SDS011;10341;49.894;8.822;2023-07-31T13:11:04;3.50;;;1.80;;
20365;SDS011;10341;49.894;8.822;2023-07-31T13:16:23;7.20;;;2.42;;
20365;SDS011;10341;49.894;8.822;2023-07-31T13:21:43;4.05;;;1.95;;
20365;SDS011;10341;49.894;8.822;2023-07-31T13:27:03;4.55;;;2.00;;
20365;SDS011;10341;49.894;8.822;2023-07-31T13:32:22;3.33;;;1.77;;
20365;SDS011;10341;49.894;8.822;2023-07-31T13:37:42;4.45;;;1.77;;
20365;SDS011;10341;49.894;8.822;2023-07-31T13:43:01;4.40;;;2.00;;
20365;SDS011;10341;49.894;8.822;2023-07-31T13:53:39;5.93;;;1.90;;
20365;SDS011;10341;49.894;8.822;2023-07-31T13:58:59;4.18;;;1.88;;
20365;SDS011;10341;49.894;8.822;2023-07-31T14:04:20;5.47;;;1.92;;
20365;SDS011;10341;49.894;8.822;2023-07-31T14:09:39;4.38;;;1.60;;
20365;SDS011;10341;49.894;8.822;2023-07-31T14:14:58;5.05;;;1.80;;
20365;SDS011;10341;49.894;8.822;2023-07-31T14:20:18;3.83;;;1.77;;
20365;SDS011;10341;49.894;8.822;2023-07-31T14:25:37;3.20;;;1.60;;
20365;SDS011;10341;49.894;8.822;2023-07-31T14:30:56;7.45;;;4.20;;
20365;SDS011;10341;49.894;8.822;2023-07-31T14:36:15;6.37;;;3.20;;
20365;SDS011;10341;49.894;8.822;2023-07-31T14:41:34;6.30;;;3.20;;
20365;SDS011;10341;49.894;8.822;2023-07-31T14:46:53;2.63;;;1.77;;
20365;SDS011;10341;49.894;8.822;2023-07-31T14:52:13;4.00;;;2.00;;
20365;SDS011;10341;49.894;8.822;2023-07-31T14:57:33;4.70;;;1.80;;
20365;SDS011;10341;49.894;8.822;2023-07-31T15:02:52;2.85;;;1.77;;
20365;SDS011;10341;49.894;8.822;2023-07-31T15:08:11;3.60;;;2.08;;
20365;SDS011;10341;49.894;8.822;2023-07-31T15:13:31;5.03;;;1.73;;
20365;SDS011;10341;49.894;8.822;2023-07-31T15:18:51;3.10;;;1.73;;
20365;SDS011;10341;49.894;8.822;2023-07-31T15:24:10;4.60;;;1.80;;
20365;SDS011;10341;49.894;8.822;2023-07-31T15:29:29;6.57;;;2.28;;
20365;SDS011;10341;49.894;8.822;2023-07-31T15:34:49;2.97;;;1.77;;
20365;SDS011;10341;49.894;8.822;2023-07-31T15:40:09;3.40;;;1.90;;
20365;SDS011;10341;49.894;8.822;2023-07-31T15:45:29;4.90;;;2.00;;
20365;SDS011;10341;49.894;8.822;2023-07-31T15:50:49;4.15;;;1.88;;
20365;SDS011;10341;49.894;8.822;2023-07-31T15:56:08;3.58;;;1.90;;
20365;SDS011;10341;49.894;8.822;2023-07-31T16:01:28;2.30;;;1.67;;
20365;SDS011;10341;49.894;8.822;2023-07-31T16:06:47;5.95;;;2.10;;
20365;SDS011;10341;49.894;8.822;2023-07-31T16:12:07;4.03;;;1.92;;
20365;SDS011;10341;49.894;8.822;2023-07-31T16:17:28;4.22;;;2.00;;
20365;SDS011;10341;49.894;8.822;2023-07-31T16:22:49;2.80;;;1.75;;
20365;SDS011;10341;49.894;8.822;2023-07-31T16:28:08;2.80;;;1.60;;
20365;SDS011;10341;49.894;8.822;2023-07-31T16:33:27;3.38;;;1.80;;
20365;SDS011;10341;49.894;8.822;2023-07-31T16:38:47;2.70;;;1.98;;
20365;SDS011;10341;49.894;8.822;2023-07-31T16:44:07;2.35;;;1.67;;
20365;SDS011;10341;49.894;8.822;2023-07-31T16:49:26;3.38;;;1.75;;
20365;SDS011;10341;49.894;8.822;2023-07-31T16:54:46;2.13;;;1.27;;
20365;SDS011;10341;49.894;8.822;2023-07-31T17:00:05;3.63;;;1.70;;
20365;SDS011;10341;49.894;8.822;2023-07-31T17:05:25;2.60;;;1.55;;
20365;SDS011;10341;49.894;8.822;2023-07-31T17:10:45;3.65;;;2.00;;
20365;SDS011;10341;49.894;8.822;2023-07-31T17:16:05;5.45;;;2.28;;
20365;SDS011;10341;49.894;8.822;2023-07-31T17:21:24;3.45;;;1.90;;
20365;SDS011;10341;49.894;8.822;2023-07-31T17:32:03;4.05;;;2.20;;
20365;SDS011;10341;49.894;8.822;2023-07-31T17:37:23;4.95;;;2.03;;
20365;SDS011;10341;49.894;8.822;2023-07-31T17:42:43;4.68;;;2.25;;
20365;SDS011;10341;49.894;8.822;2023-07-31T17:48:02;4.43;;;2.22;;
20365;SDS011;10341;49.894;8.822;2023-07-31T17:53:21;4.50;;;2.60;;
20365;SDS011;10341;49.894;8.822;2023-07-31T17:58:40;2.88;;;1.90;;
20365;SDS011;10341;49.894;8.822;2023-07-31T18:04:00;5.43;;;2.38;;
20365;SDS011;10341;49.894;8.822;2023-07-31T18:09:19;3.47;;;2.00;;
20365;SDS011;10341;49.894;8.822;2023-07-31T18:14:39;4.57;;;2.45;;
20365;SDS011;10341;49.894;8.822;2023-07-31T18:19:59;4.43;;;2.25;;
20365;SDS011;10341;49.894;8.822;2023-07-31T18:25:18;4.43;;;2.40;;
20365;SDS011;10341;49.894;8.822;2023-07-31T18:30:37;5.75;;;2.58;;
20365;SDS011;10341;49.894;8.822;2023-07-31T18:35:57;3.63;;;2.20;;
20365;SDS011;10341;49.894;8.822;2023-07-31T18:41:16;4.97;;;2.50;;
20365;SDS011;10341;49.894;8.822;2023-07-31T18:46:35;5.90;;;2.80;;
20365;SDS011;10341;49.894;8.822;2023-07-31T18:51:54;5.10;;;2.80;;
20365;SDS011;10341;49.894;8.822;2023-07-31T18:57:14;5.18;;;3.03;;
20365;SDS011;10341;49.894;8.822;2023-07-31T19:02:33;4.77;;;2.33;;
20365;SDS011;10341;49.894;8.822;2023-07-31T19:07:52;4.75;;;2.53;;
20365;SDS011;10341;49.894;8.822;2023-07-31T19:13:12;2.65;;;1.80;;
20365;SDS011;10341;49.894;8.822;2023-07-31T19:18:32;5.45;;;2.58;;
20365;SDS011;10341;49.894;8.822;2023-07-31T19:23:51;3.53;;;2.08;;
20365;SDS011;10341;49.894;8.822;2023-07-31T19:29:10;3.50;;;1.92;;
20365;SDS011;10341;49.894;8.822;2023-07-31T19:34:30;2.88;;;1.73;;
20365;SDS011;10341;49.894;8.822;2023-07-31T19:39:50;4.97;;;2.03;;
20365;SDS011;10341;49.894;8.822;2023-07-31T19:45:11;5.00;;;1.95;;
20365;SDS011;10341;49.894;8.822;2023-07-31T19:55:50;3.75;;;2.10;;
20365;SDS011;10341;49.894;8.822;2023-07-31T20:01:10;3.58;;;1.90;;
20365;SDS011;10341;49.894;8.822;2023-07-31T20:06:29;2.08;;;1.60;;
20365;SDS011;10341;49.894;8.822;2023-07-31T20:11:48;3.47;;;1.88;;
20365;SDS011;10341;49.894;8.822;2023-07-31T20:17:08;8.10;;;2.60;;
20365;SDS011;10341;49.894;8.822;2023-07-31T20:22:27;3.20;;;1.77;;
20365;SDS011;10341;49.894;8.822;2023-07-31T20:27:47;2.70;;;1.65;;
20365;SDS011;10341;49.894;8.822;2023-07-31T20:33:06;3.55;;;2.00;;
20365;SDS011;10341;49.894;8.822;2023-07-31T20:38:26;3.35;;;2.03;;
20365;SDS011;10341;49.894;8.822;2023-07-31T20:43:45;3.58;;;1.92;;
20365;SDS011;10341;49.894;8.822;2023-07-31T20:49:04;3.53;;;1.77;;
20365;SDS011;10341;49.894;8.822;2023-07-31T20:54:24;3.47;;;2.10;;
20365;SDS011;10341;49.894;8.822;2023-07-31T20:59:43;3.95;;;2.17;;
20365;SDS011;10341;49.894;8.822;2023-07-31T21:05:02;3.60;;;2.38;;
20365;SDS011;10341;49.894;8.822;2023-07-31T21:10:22;4.93;;;2.30;;
20365;SDS011;10341;49.894;8.822;2023-07-31T21:15:42;4.30;;;2.20;;
20365;SDS011;10341;49.894;8.822;2023-07-31T21:21:01;4.50;;;2.63;;
20365;SDS011;10341;49.894;8.822;2023-07-31T21:26:21;3.70;;;2.30;;
20365;SDS011;10341;49.894;8.822;2023-07-31T21:31:40;4.30;;;2.50;;
20365;SDS011;10341;49.894;8.822;2023-07-31T21:37:00;5.00;;;2.78;;
20365;SDS011;10341;49.894;8.822;2023-07-31T21:42:19;5.10;;;2.50;;
20365;SDS011;10341;49.894;8.822;2023-07-31T21:47:38;5.90;;;2.50;;
20365;SDS011;10341;49.894;8.822;2023-07-31T21:52:57;4.82;;;2.40;;
20365;SDS011;10341;49.894;8.822;2023-07-31T21:58:16;5.88;;;2.60;;
20365;SDS011;10341;49.894;8.822;2023-07-31T22:03:35;4.68;;;2.80;;
20365;SDS011;10341;49.894;8.822;2023-07-31T22:14:14;5.97;;;3.25;;
20365;SDS011;10341;49.894;8.822;2023-07-31T22:19:34;4.82;;;2.67;;
20365;SDS011;10341;49.894;8.822;2023-07-31T22:24:53;5.18;;;2.53;;
20365;SDS011;10341;49.894;8.822;2023-07-31T22:30:12;5.53;;;2.60;;
20365;SDS011;10341;49.894;8.822;2023-07-31T22:35:32;3.38;;;2.13;;
20365;SDS011;10341;49.894;8.822;2023-07-31T22:40:51;5.57;;;2.50;;
20365;SDS011;10341;49.894;8.822;2023-07-31T22:46:10;7.25;;;2.88;;
20365;SDS011;10341;49.894;8.822;2023-07-31T22:51:30;7.15;;;3.50;;
20365;SDS011;10341;49.894;8.822;2023-07-31T22:56:49;4.10;;;2.47;;
20365;SDS011;10341;49.894;8.822;2023-07-31T23:02:08;5.60;;;2.55;;
20365;SDS011;10341;49.894;8.822;2023-07-31T23:07:28;4.35;;;2.50;;
20365;SDS011;10341;49.894;8.822;2023-07-31T23:12:47;4.15;;;2.30;;
20365;SDS011;10341;49.894;8.822;2023-07-31T23:18:06;3.55;;;2.50;;
20365;SDS011;10341;49.894;8.822;2023-07-31T23:23:25;5.88;;;2.75;;
20365;SDS011;10341;49.894;8.822;2023-07-31T23:28:44;4.40;;;2.53;;
20365;SDS011;10341;49.894;8.822;2023-07-31T23:34:03;4.43;;;2.63;;
20365;SDS011;10341;49.894;8.822;2023-07-31T23:39:22;5.43;;;3.20;;
20365;SDS011;10341;49.894;8.822;2023-07-31T23:44:41;5.00;;;2.80;;
20365;SDS011;10341;49.894;8.822;2023-07-31T23:50:00;5.30;;;2.67;;
20365;SDS011;10341;49.894;8.822;2023-07-31T23:55:20;5.17;;;2.57;;
